sensor_id;sensor_type;location;lat;lon;timestamp;P1;durP1;ratioP1;P2;durP2;ratioP2
77158;SDS011;66129;45.890;13.714;2023-07-31T00:01:24;6.82;;;3.05;;
77158;SDS011;66129;45.890;13.714;2023-07-31T00:03:50;8.75;;;2.80;;
77158;SDS011;66129;45.890;13.714;2023-07-31T00:06:15;5.95;;;3.85;;
77158;SDS011;66129;45.890;13.714;2023-07-31T00:08:41;4.70;;;2.78;;
77158;SDS011;66129;45.890;13.714;2023-07-31T00:11:06;6.45;;;3.20;;
77158;SDS011;66129;45.890;13.714;2023-07-31T00:13:31;5.15;;;2.97;;
77158;SDS011;66129;45.890;13.714;2023-07-31T00:15:57;4.82;;;3.30;;
77158;SDS011;66129;45.890;13.714;2023-07-31T00:18:22;3.50;;;2.80;;
77158;SDS011;66129;45.890;13.714;2023-07-31T00:20:48;5.80;;;2.53;;
77158;SDS011;66129;45.890;13.714;2023-07-31T00:23:13;5.38;;;2.53;;
77158;SDS011;66129;45.890;13.714;2023-07-31T00:25:39;4.07;;;3.05;;
77158;SDS011;66129;45.890;13.714;2023-07-31T00:28:04;3.42;;;2.58;;
77158;SDS011;66129;45.890;13.714;2023-07-31T00:30:30;6.55;;;3.42;;
77158;SDS011;66129;45.890;13.714;2023-07-31T00:32:55;7.15;;;3.00;;
77158;SDS011;66129;45.890;13.714;2023-07-31T00:35:21;9.80;;;3.55;;
77158;SDS011;66129;45.890;13.714;2023-07-31T00:37:46;5.65;;;2.92;;
77158;SDS011;66129;45.890;13.714;2023-07-31T00:40:12;4.13;;;2.75;;
77158;SDS011;66129;45.890;13.714;2023-07-31T00:42:38;6.68;;;2.70;;
77158;SDS011;66129;45.890;13.714;2023-07-31T00:45:04;10.63;;;2.78;;
77158;SDS011;66129;45.890;13.714;2023-07-31T00:47:30;3.58;;;2.70;;
77158;SDS011;66129;45.890;13.714;2023-07-31T00:49:56;3.53;;;2.22;;
77158;SDS011;66129;45.890;13.714;2023-07-31T00:52:22;7.65;;;3.00;;
77158;SDS011;66129;45.890;13.714;2023-07-31T00:54:48;5.22;;;2.80;;
77158;SDS011;66129;45.890;13.714;2023-07-31T00:57:14;4.82;;;2.55;;
77158;SDS011;66129;45.890;13.714;2023-07-31T00:59:40;5.32;;;2.72;;
77158;SDS011;66129;45.890;13.714;2023-07-31T01:02:06;6.60;;;2.72;;
77158;SDS011;66129;45.890;13.714;2023-07-31T01:04:31;4.88;;;2.47;;
77158;SDS011;66129;45.890;13.714;2023-07-31T01:12:17;5.55;;;2.53;;
77158;SDS011;66129;45.890;13.714;2023-07-31T01:17:26;5.28;;;3.10;;
77158;SDS011;66129;45.890;13.714;2023-07-31T01:19:51;7.68;;;3.45;;
77158;SDS011;66129;45.890;13.714;2023-07-31T01:27:49;7.50;;;2.70;;
77158;SDS011;66129;45.890;13.714;2023-07-31T01:32:47;5.72;;;3.08;;
77158;SDS011;66129;45.890;13.714;2023-07-31T01:35:13;7.22;;;2.72;;
77158;SDS011;66129;45.890;13.714;2023-07-31T01:37:40;4.25;;;2.55;;
77158;SDS011;66129;45.890;13.714;2023-07-31T01:40:06;5.25;;;2.22;;
77158;SDS011;66129;45.890;13.714;2023-07-31T01:42:31;3.78;;;2.55;;
77158;SDS011;66129;45.890;13.714;2023-07-31T01:44:57;5.35;;;2.55;;
77158;SDS011;66129;45.890;13.714;2023-07-31T01:47:22;3.58;;;2.38;;
77158;SDS011;66129;45.890;13.714;2023-07-31T01:49:48;5.40;;;2.70;;
77158;SDS011;66129;45.890;13.714;2023-07-31T01:52:14;4.28;;;2.92;;
77158;SDS011;66129;45.890;13.714;2023-07-31T01:54:39;3.80;;;2.47;;
77158;SDS011;66129;45.890;13.714;2023-07-31T01:57:05;2.78;;;2.13;;
77158;SDS011;66129;45.890;13.714;2023-07-31T01:59:31;4.63;;;2.20;;
77158;SDS011;66129;45.890;13.714;2023-07-31T02:01:56;4.72;;;2.20;;
77158;SDS011;66129;45.890;13.714;2023-07-31T02:04:22;5.70;;;2.17;;
77158;SDS011;66129;45.890;13.714;2023-07-31T02:06:47;6.38;;;2.65;;
77158;SDS011;66129;45.890;13.714;2023-07-31T02:09:13;3.67;;;2.45;;
77158;SDS011;66129;45.890;13.714;2023-07-31T02:11:38;5.15;;;2.15;;
77158;SDS011;66129;45.890;13.714;2023-07-31T02:14:04;4.38;;;2.25;;
77158;SDS011;66129;45.890;13.714;2023-07-31T02:16:29;4.43;;;2.55;;
77158;SDS011;66129;45.890;13.714;2023-07-31T02:18:54;3.58;;;2.42;;
77158;SDS011;66129;45.890;13.714;2023-07-31T02:21:20;4.93;;;2.67;;
77158;SDS011;66129;45.890;13.714;2023-07-31T02:23:45;6.18;;;2.47;;
77158;SDS011;66129;45.890;13.714;2023-07-31T02:26:11;5.40;;;2.40;;
77158;SDS011;66129;45.890;13.714;2023-07-31T02:28:36;3.83;;;2.88;;
77158;SDS011;66129;45.890;13.714;2023-07-31T02:31:02;4.55;;;2.20;;
77158;SDS011;66129;45.890;13.714;2023-07-31T02:33:27;3.42;;;2.55;;
77158;SDS011;66129;45.890;13.714;2023-07-31T02:35:53;4.47;;;2.85;;
77158;SDS011;66129;45.890;13.714;2023-07-31T02:38:18;4.90;;;2.25;;
77158;SDS011;66129;45.890;13.714;2023-07-31T02:40:44;3.67;;;2.38;;
77158;SDS011;66129;45.890;13.714;2023-07-31T02:43:09;6.82;;;2.60;;
77158;SDS011;66129;45.890;13.714;2023-07-31T02:45:35;4.30;;;2.35;;
77158;SDS011;66129;45.890;13.714;2023-07-31T02:48:00;5.78;;;2.30;;
77158;SDS011;66129;45.890;13.714;2023-07-31T02:50:26;5.07;;;2.20;;
77158;SDS011;66129;45.890;13.714;2023-07-31T02:52:52;5.38;;;2.55;;
77158;SDS011;66129;45.890;13.714;2023-07-31T02:55:18;3.55;;;2.50;;
77158;SDS011;66129;45.890;13.714;2023-07-31T02:57:43;5.53;;;2.15;;
77158;SDS011;66129;45.890;13.714;2023-07-31T03:00:09;3.13;;;2.17;;
77158;SDS011;66129;45.890;13.714;2023-07-31T03:02:34;2.95;;;1.95;;
77158;SDS011;66129;45.890;13.714;2023-07-31T03:05:00;4.75;;;2.10;;
77158;SDS011;66129;45.890;13.714;2023-07-31T03:07:25;2.75;;;1.70;;
77158;SDS011;66129;45.890;13.714;2023-07-31T03:09:51;3.20;;;2.00;;
77158;SDS011;66129;45.890;13.714;2023-07-31T03:12:16;3.67;;;1.90;;
77158;SDS011;66129;45.890;13.714;2023-07-31T03:14:42;3.63;;;1.80;;
77158;SDS011;66129;45.890;13.714;2023-07-31T03:17:07;2.30;;;1.70;;
77158;SDS011;66129;45.890;13.714;2023-07-31T03:19:33;3.08;;;2.05;;
77158;SDS011;66129;45.890;13.714;2023-07-31T03:21:58;5.38;;;1.83;;
77158;SDS011;66129;45.890;13.714;2023-07-31T03:24:24;2.97;;;1.98;;
77158;SDS011;66129;45.890;13.714;2023-07-31T03:26:50;3.40;;;1.83;;
77158;SDS011;66129;45.890;13.714;2023-07-31T03:29:16;3.55;;;1.83;;
77158;SDS011;66129;45.890;13.714;2023-07-31T03:31:41;3.30;;;2.30;;
77158;SDS011;66129;45.890;13.714;2023-07-31T03:34:07;2.92;;;2.00;;
77158;SDS011;66129;45.890;13.714;2023-07-31T03:36:32;6.03;;;2.10;;
77158;SDS011;66129;45.890;13.714;2023-07-31T03:38:58;2.22;;;1.50;;
77158;SDS011;66129;45.890;13.714;2023-07-31T03:41:23;2.92;;;2.00;;
77158;SDS011;66129;45.890;13.714;2023-07-31T03:43:50;3.00;;;2.10;;
77158;SDS011;66129;45.890;13.714;2023-07-31T03:46:17;2.33;;;1.80;;
77158;SDS011;66129;45.890;13.714;2023-07-31T03:48:42;3.58;;;2.00;;
77158;SDS011;66129;45.890;13.714;2023-07-31T03:51:08;2.22;;;1.70;;
77158;SDS011;66129;45.890;13.714;2023-07-31T03:53:33;3.13;;;1.65;;
77158;SDS011;66129;45.890;13.714;2023-07-31T03:55:59;2.95;;;1.70;;
77158;SDS011;66129;45.890;13.714;2023-07-31T03:58:24;2.47;;;1.88;;
77158;SDS011;66129;45.890;13.714;2023-07-31T04:00:50;4.55;;;2.10;;
77158;SDS011;66129;45.890;13.714;2023-07-31T04:03:15;2.13;;;1.55;;
77158;SDS011;66129;45.890;13.714;2023-07-31T04:05:40;5.00;;;1.70;;
77158;SDS011;66129;45.890;13.714;2023-07-31T04:08:06;2.33;;;1.60;;
77158;SDS011;66129;45.890;13.714;2023-07-31T04:10:31;3.05;;;1.85;;
77158;SDS011;66129;45.890;13.714;2023-07-31T04:12:58;2.42;;;1.52;;
77158;SDS011;66129;45.890;13.714;2023-07-31T04:15:25;2.33;;;1.60;;
77158;SDS011;66129;45.890;13.714;2023-07-31T04:17:50;4.95;;;1.70;;
77158;SDS011;66129;45.890;13.714;2023-07-31T04:20:16;3.28;;;1.50;;
77158;SDS011;66129;45.890;13.714;2023-07-31T04:22:42;2.63;;;1.85;;
77158;SDS011;66129;45.890;13.714;2023-07-31T04:25:07;5.13;;;1.90;;
77158;SDS011;66129;45.890;13.714;2023-07-31T04:27:33;2.72;;;1.63;;
77158;SDS011;66129;45.890;13.714;2023-07-31T04:29:58;2.67;;;1.48;;
77158;SDS011;66129;45.890;13.714;2023-07-31T04:32:24;3.00;;;1.67;;
77158;SDS011;66129;45.890;13.714;2023-07-31T04:34:49;2.47;;;1.58;;
77158;SDS011;66129;45.890;13.714;2023-07-31T04:37:15;4.22;;;1.60;;
77158;SDS011;66129;45.890;13.714;2023-07-31T04:39:40;3.95;;;1.60;;
77158;SDS011;66129;45.890;13.714;2023-07-31T04:42:06;3.78;;;1.70;;
77158;SDS011;66129;45.890;13.714;2023-07-31T04:44:31;2.20;;;1.60;;
77158;SDS011;66129;45.890;13.714;2023-07-31T04:46:57;5.90;;;1.83;;
77158;SDS011;66129;45.890;13.714;2023-07-31T04:49:22;2.72;;;1.58;;
77158;SDS011;66129;45.890;13.714;2023-07-31T04:51:48;2.33;;;1.50;;
77158;SDS011;66129;45.890;13.714;2023-07-31T04:54:13;3.22;;;1.70;;
77158;SDS011;66129;45.890;13.714;2023-07-31T04:56:40;3.92;;;1.75;;
77158;SDS011;66129;45.890;13.714;2023-07-31T04:59:06;4.30;;;1.83;;
77158;SDS011;66129;45.890;13.714;2023-07-31T05:01:31;2.55;;;1.58;;
77158;SDS011;66129;45.890;13.714;2023-07-31T05:03:57;4.05;;;1.60;;
77158;SDS011;66129;45.890;13.714;2023-07-31T05:06:22;2.05;;;1.30;;
77158;SDS011;66129;45.890;13.714;2023-07-31T05:08:48;3.45;;;1.52;;
77158;SDS011;66129;45.890;13.714;2023-07-31T05:11:13;2.72;;;1.60;;
77158;SDS011;66129;45.890;13.714;2023-07-31T05:13:38;3.28;;;1.75;;
77158;SDS011;66129;45.890;13.714;2023-07-31T05:16:04;2.53;;;1.52;;
77158;SDS011;66129;45.890;13.714;2023-07-31T05:18:29;2.50;;;1.38;;
77158;SDS011;66129;45.890;13.714;2023-07-31T05:20:55;2.30;;;1.50;;
77158;SDS011;66129;45.890;13.714;2023-07-31T05:23:20;2.63;;;1.65;;
77158;SDS011;66129;45.890;13.714;2023-07-31T05:25:46;3.22;;;1.50;;
77158;SDS011;66129;45.890;13.714;2023-07-31T05:28:12;2.30;;;1.65;;
77158;SDS011;66129;45.890;13.714;2023-07-31T05:30:37;3.28;;;1.60;;
77158;SDS011;66129;45.890;13.714;2023-07-31T05:33:03;2.20;;;1.60;;
77158;SDS011;66129;45.890;13.714;2023-07-31T05:35:29;2.78;;;1.52;;
77158;SDS011;66129;45.890;13.714;2023-07-31T05:37:54;2.05;;;1.45;;
77158;SDS011;66129;45.890;13.714;2023-07-31T05:40:20;2.85;;;1.80;;
77158;SDS011;66129;45.890;13.714;2023-07-31T05:42:45;1.90;;;1.30;;
77158;SDS011;66129;45.890;13.714;2023-07-31T05:45:11;2.17;;;1.48;;
77158;SDS011;66129;45.890;13.714;2023-07-31T05:47:37;2.45;;;1.42;;
77158;SDS011;66129;45.890;13.714;2023-07-31T05:50:03;1.98;;;1.52;;
77158;SDS011;66129;45.890;13.714;2023-07-31T05:52:28;2.33;;;1.50;;
77158;SDS011;66129;45.890;13.714;2023-07-31T05:54:54;2.92;;;1.92;;
77158;SDS011;66129;45.890;13.714;2023-07-31T05:57:20;2.10;;;1.38;;
77158;SDS011;66129;45.890;13.714;2023-07-31T05:59:45;3.15;;;1.50;;
77158;SDS011;66129;45.890;13.714;2023-07-31T06:02:11;2.53;;;1.50;;
77158;SDS011;66129;45.890;13.714;2023-07-31T06:04:36;1.90;;;1.40;;
77158;SDS011;66129;45.890;13.714;2023-07-31T06:07:02;1.98;;;1.40;;
77158;SDS011;66129;45.890;13.714;2023-07-31T06:09:28;3.45;;;1.60;;
77158;SDS011;66129;45.890;13.714;2023-07-31T06:11:54;2.78;;;1.77;;
77158;SDS011;66129;45.890;13.714;2023-07-31T06:14:19;3.30;;;1.65;;
77158;SDS011;66129;45.890;13.714;2023-07-31T06:16:45;2.17;;;1.40;;
77158;SDS011;66129;45.890;13.714;2023-07-31T06:19:10;2.78;;;1.70;;
77158;SDS011;66129;45.890;13.714;2023-07-31T06:21:36;2.47;;;1.60;;
77158;SDS011;66129;45.890;13.714;2023-07-31T06:24:07;2.42;;;1.60;;
77158;SDS011;66129;45.890;13.714;2023-07-31T06:26:33;4.18;;;1.85;;
77158;SDS011;66129;45.890;13.714;2023-07-31T06:28:58;2.60;;;1.80;;
77158;SDS011;66129;45.890;13.714;2023-07-31T06:31:24;1.85;;;1.48;;
77158;SDS011;66129;45.890;13.714;2023-07-31T06:33:50;2.58;;;1.38;;
77158;SDS011;66129;45.890;13.714;2023-07-31T06:36:16;3.28;;;1.60;;
77158;SDS011;66129;45.890;13.714;2023-07-31T06:38:41;2.78;;;1.50;;
77158;SDS011;66129;45.890;13.714;2023-07-31T06:41:07;2.25;;;1.45;;
77158;SDS011;66129;45.890;13.714;2023-07-31T06:43:32;3.00;;;1.48;;
77158;SDS011;66129;45.890;13.714;2023-07-31T06:45:59;2.10;;;1.33;;
77158;SDS011;66129;45.890;13.714;2023-07-31T06:48:29;4.15;;;1.60;;
77158;SDS011;66129;45.890;13.714;2023-07-31T06:50:55;3.42;;;1.70;;
77158;SDS011;66129;45.890;13.714;2023-07-31T06:53:20;2.30;;;1.67;;
77158;SDS011;66129;45.890;13.714;2023-07-31T06:55:46;2.53;;;1.60;;
77158;SDS011;66129;45.890;13.714;2023-07-31T06:58:13;1.88;;;1.38;;
77158;SDS011;66129;45.890;13.714;2023-07-31T07:00:38;2.53;;;1.58;;
77158;SDS011;66129;45.890;13.714;2023-07-31T07:03:04;2.10;;;1.45;;
77158;SDS011;66129;45.890;13.714;2023-07-31T07:05:29;3.30;;;1.80;;
77158;SDS011;66129;45.890;13.714;2023-07-31T07:07:55;3.47;;;1.52;;
77158;SDS011;66129;45.890;13.714;2023-07-31T07:10:20;1.80;;;1.40;;
77158;SDS011;66129;45.890;13.714;2023-07-31T07:12:46;2.65;;;1.60;;
77158;SDS011;66129;45.890;13.714;2023-07-31T07:15:11;3.05;;;1.88;;
77158;SDS011;66129;45.890;13.714;2023-07-31T07:17:37;3.10;;;1.83;;
77158;SDS011;66129;45.890;13.714;2023-07-31T07:20:02;2.67;;;1.67;;
77158;SDS011;66129;45.890;13.714;2023-07-31T07:22:28;2.38;;;1.60;;
77158;SDS011;66129;45.890;13.714;2023-07-31T07:24:54;3.15;;;1.90;;
77158;SDS011;66129;45.890;13.714;2023-07-31T07:27:19;2.22;;;1.63;;
77158;SDS011;66129;45.890;13.714;2023-07-31T07:29:45;3.70;;;1.70;;
77158;SDS011;66129;45.890;13.714;2023-07-31T07:32:11;2.83;;;1.90;;
77158;SDS011;66129;45.890;13.714;2023-07-31T07:34:37;3.22;;;1.98;;
77158;SDS011;66129;45.890;13.714;2023-07-31T07:37:03;2.72;;;1.50;;
77158;SDS011;66129;45.890;13.714;2023-07-31T07:39:29;2.47;;;1.60;;
77158;SDS011;66129;45.890;13.714;2023-07-31T07:41:54;2.53;;;1.60;;
77158;SDS011;66129;45.890;13.714;2023-07-31T07:44:20;2.40;;;1.40;;
77158;SDS011;66129;45.890;13.714;2023-07-31T07:46:45;2.67;;;1.65;;
77158;SDS011;66129;45.890;13.714;2023-07-31T07:49:10;2.85;;;1.58;;
77158;SDS011;66129;45.890;13.714;2023-07-31T07:51:36;2.10;;;1.48;;
77158;SDS011;66129;45.890;13.714;2023-07-31T07:54:02;3.70;;;1.60;;
77158;SDS011;66129;45.890;13.714;2023-07-31T07:56:27;2.20;;;1.27;;
77158;SDS011;66129;45.890;13.714;2023-07-31T07:58:53;2.20;;;1.60;;
77158;SDS011;66129;45.890;13.714;2023-07-31T08:01:19;2.28;;;1.60;;
77158;SDS011;66129;45.890;13.714;2023-07-31T08:03:45;2.47;;;1.70;;
77158;SDS011;66129;45.890;13.714;2023-07-31T08:06:10;2.50;;;1.63;;
77158;SDS011;66129;45.890;13.714;2023-07-31T08:08:36;2.35;;;1.52;;
77158;SDS011;66129;45.890;13.714;2023-07-31T08:11:03;2.10;;;1.40;;
77158;SDS011;66129;45.890;13.714;2023-07-31T08:13:29;2.50;;;1.65;;
77158;SDS011;66129;45.890;13.714;2023-07-31T08:15:54;2.70;;;1.60;;
77158;SDS011;66129;45.890;13.714;2023-07-31T08:18:20;2.38;;;1.60;;
77158;SDS011;66129;45.890;13.714;2023-07-31T08:20:46;4.43;;;1.80;;
77158;SDS011;66129;45.890;13.714;2023-07-31T08:23:11;2.45;;;1.50;;
77158;SDS011;66129;45.890;13.714;2023-07-31T08:25:37;2.05;;;1.50;;
77158;SDS011;66129;45.890;13.714;2023-07-31T08:28:03;3.75;;;1.60;;
77158;SDS011;66129;45.890;13.714;2023-07-31T08:30:29;3.08;;;1.58;;
77158;SDS011;66129;45.890;13.714;2023-07-31T08:32:55;3.15;;;1.83;;
77158;SDS011;66129;45.890;13.714;2023-07-31T08:35:21;2.33;;;1.50;;
77158;SDS011;66129;45.890;13.714;2023-07-31T08:37:46;2.17;;;1.55;;
77158;SDS011;66129;45.890;13.714;2023-07-31T08:40:11;2.17;;;1.40;;
77158;SDS011;66129;45.890;13.714;2023-07-31T08:42:45;5.03;;;1.77;;
77158;SDS011;66129;45.890;13.714;2023-07-31T08:45:14;2.78;;;1.65;;
77158;SDS011;66129;45.890;13.714;2023-07-31T08:47:47;2.03;;;1.42;;
77158;SDS011;66129;45.890;13.714;2023-07-31T08:50:15;2.58;;;1.70;;
77158;SDS011;66129;45.890;13.714;2023-07-31T08:52:41;4.53;;;1.63;;
77158;SDS011;66129;45.890;13.714;2023-07-31T08:55:07;3.03;;;1.85;;
77158;SDS011;66129;45.890;13.714;2023-07-31T08:57:34;3.05;;;1.88;;
77158;SDS011;66129;45.890;13.714;2023-07-31T09:00:02;3.65;;;1.83;;
77158;SDS011;66129;45.890;13.714;2023-07-31T09:02:30;4.95;;;1.77;;
77158;SDS011;66129;45.890;13.714;2023-07-31T09:05:01;2.95;;;1.90;;
77158;SDS011;66129;45.890;13.714;2023-07-31T09:07:27;3.88;;;1.80;;
77158;SDS011;66129;45.890;13.714;2023-07-31T09:09:54;3.00;;;1.75;;
77158;SDS011;66129;45.890;13.714;2023-07-31T09:12:19;2.50;;;1.80;;
77158;SDS011;66129;45.890;13.714;2023-07-31T09:14:45;2.85;;;2.00;;
77158;SDS011;66129;45.890;13.714;2023-07-31T09:17:12;2.92;;;1.98;;
77158;SDS011;66129;45.890;13.714;2023-07-31T09:19:37;2.70;;;1.70;;
77158;SDS011;66129;45.890;13.714;2023-07-31T09:22:04;3.60;;;1.98;;
77158;SDS011;66129;45.890;13.714;2023-07-31T09:24:31;2.92;;;1.65;;
77158;SDS011;66129;45.890;13.714;2023-07-31T09:26:59;3.00;;;2.10;;
77158;SDS011;66129;45.890;13.714;2023-07-31T09:29:26;3.13;;;1.90;;
77158;SDS011;66129;45.890;13.714;2023-07-31T09:31:53;2.38;;;1.60;;
77158;SDS011;66129;45.890;13.714;2023-07-31T09:34:19;2.78;;;1.70;;
77158;SDS011;66129;45.890;13.714;2023-07-31T09:36:53;2.92;;;1.70;;
77158;SDS011;66129;45.890;13.714;2023-07-31T09:39:18;4.18;;;1.80;;
77158;SDS011;66129;45.890;13.714;2023-07-31T09:41:53;4.22;;;2.08;;
77158;SDS011;66129;45.890;13.714;2023-07-31T09:44:19;4.65;;;1.70;;
77158;SDS011;66129;45.890;13.714;2023-07-31T09:46:45;3.30;;;2.05;;
77158;SDS011;66129;45.890;13.714;2023-07-31T09:49:11;3.83;;;2.15;;
77158;SDS011;66129;45.890;13.714;2023-07-31T09:51:38;2.75;;;1.52;;
77158;SDS011;66129;45.890;13.714;2023-07-31T09:54:11;2.30;;;1.50;;
77158;SDS011;66129;45.890;13.714;2023-07-31T09:56:39;3.95;;;1.88;;
77158;SDS011;66129;45.890;13.714;2023-07-31T09:59:08;3.13;;;1.98;;
77158;SDS011;66129;45.890;13.714;2023-07-31T10:01:36;3.10;;;1.80;;
77158;SDS011;66129;45.890;13.714;2023-07-31T10:04:03;4.90;;;1.83;;
77158;SDS011;66129;45.890;13.714;2023-07-31T10:06:30;3.42;;;2.13;;
77158;SDS011;66129;45.890;13.714;2023-07-31T10:08:57;4.30;;;1.83;;
77158;SDS011;66129;45.890;13.714;2023-07-31T10:11:24;2.55;;;1.90;;
77158;SDS011;66129;45.890;13.714;2023-07-31T10:13:52;3.15;;;2.08;;
77158;SDS011;66129;45.890;13.714;2023-07-31T10:16:20;3.22;;;1.80;;
77158;SDS011;66129;45.890;13.714;2023-07-31T10:18:46;2.88;;;1.80;;
77158;SDS011;66129;45.890;13.714;2023-07-31T10:21:13;3.67;;;1.67;;
77158;SDS011;66129;45.890;13.714;2023-07-31T10:23:39;2.38;;;1.73;;
77158;SDS011;66129;45.890;13.714;2023-07-31T10:26:08;3.17;;;1.60;;
77158;SDS011;66129;45.890;13.714;2023-07-31T10:28:34;2.22;;;1.65;;
77158;SDS011;66129;45.890;13.714;2023-07-31T10:31:02;2.53;;;1.75;;
77158;SDS011;66129;45.890;13.714;2023-07-31T10:33:29;2.70;;;1.92;;
77158;SDS011;66129;45.890;13.714;2023-07-31T10:36:17;2.47;;;1.70;;
77158;SDS011;66129;45.890;13.714;2023-07-31T10:38:44;3.33;;;1.90;;
77158;SDS011;66129;45.890;13.714;2023-07-31T10:41:10;2.90;;;1.73;;
77158;SDS011;66129;45.890;13.714;2023-07-31T10:43:38;2.10;;;1.50;;
77158;SDS011;66129;45.890;13.714;2023-07-31T10:46:07;2.58;;;1.65;;
77158;SDS011;66129;45.890;13.714;2023-07-31T10:48:38;2.63;;;1.73;;
77158;SDS011;66129;45.890;13.714;2023-07-31T10:51:10;3.60;;;1.50;;
77158;SDS011;66129;45.890;13.714;2023-07-31T10:53:37;3.03;;;2.00;;
77158;SDS011;66129;45.890;13.714;2023-07-31T10:56:03;2.35;;;1.80;;
77158;SDS011;66129;45.890;13.714;2023-07-31T10:58:30;3.03;;;1.92;;
77158;SDS011;66129;45.890;13.714;2023-07-31T11:00:58;2.63;;;1.83;;
77158;SDS011;66129;45.890;13.714;2023-07-31T11:03:49;2.40;;;1.80;;
77158;SDS011;66129;45.890;13.714;2023-07-31T11:06:17;2.60;;;2.00;;
77158;SDS011;66129;45.890;13.714;2023-07-31T11:08:46;2.83;;;1.80;;
77158;SDS011;66129;45.890;13.714;2023-07-31T11:11:14;4.32;;;1.95;;
77158;SDS011;66129;45.890;13.714;2023-07-31T11:13:43;4.22;;;2.30;;
77158;SDS011;66129;45.890;13.714;2023-07-31T11:16:11;3.58;;;1.70;;
77158;SDS011;66129;45.890;13.714;2023-07-31T11:18:41;2.38;;;1.60;;
77158;SDS011;66129;45.890;13.714;2023-07-31T11:21:09;2.67;;;1.88;;
77158;SDS011;66129;45.890;13.714;2023-07-31T11:23:38;2.92;;;1.90;;
77158;SDS011;66129;45.890;13.714;2023-07-31T11:26:04;2.95;;;1.83;;
77158;SDS011;66129;45.890;13.714;2023-07-31T11:28:33;3.28;;;1.70;;
77158;SDS011;66129;45.890;13.714;2023-07-31T11:31:00;2.63;;;2.00;;
77158;SDS011;66129;45.890;13.714;2023-07-31T11:33:26;2.70;;;1.98;;
77158;SDS011;66129;45.890;13.714;2023-07-31T11:35:52;3.10;;;2.30;;
77158;SDS011;66129;45.890;13.714;2023-07-31T11:38:21;3.13;;;1.80;;
77158;SDS011;66129;45.890;13.714;2023-07-31T11:40:58;2.78;;;1.92;;
77158;SDS011;66129;45.890;13.714;2023-07-31T11:43:24;3.55;;;2.30;;
77158;SDS011;66129;45.890;13.714;2023-07-31T11:45:52;2.65;;;2.00;;
77158;SDS011;66129;45.890;13.714;2023-07-31T11:48:23;3.50;;;1.98;;
77158;SDS011;66129;45.890;13.714;2023-07-31T11:50:51;2.40;;;1.70;;
77158;SDS011;66129;45.890;13.714;2023-07-31T11:53:19;2.60;;;1.90;;
77158;SDS011;66129;45.890;13.714;2023-07-31T11:55:57;3.35;;;2.17;;
77158;SDS011;66129;45.890;13.714;2023-07-31T11:58:24;3.15;;;2.15;;
77158;SDS011;66129;45.890;13.714;2023-07-31T12:00:51;2.70;;;1.90;;
77158;SDS011;66129;45.890;13.714;2023-07-31T12:03:17;3.10;;;1.98;;
77158;SDS011;66129;45.890;13.714;2023-07-31T12:05:43;2.85;;;1.80;;
77158;SDS011;66129;45.890;13.714;2023-07-31T12:08:10;3.28;;;1.70;;
77158;SDS011;66129;45.890;13.714;2023-07-31T12:10:39;4.15;;;2.10;;
77158;SDS011;66129;45.890;13.714;2023-07-31T12:13:10;2.25;;;1.58;;
77158;SDS011;66129;45.890;13.714;2023-07-31T12:18:10;2.67;;;1.52;;
77158;SDS011;66129;45.890;13.714;2023-07-31T12:20:41;3.88;;;1.80;;
77158;SDS011;66129;45.890;13.714;2023-07-31T12:23:12;3.60;;;1.88;;
77158;SDS011;66129;45.890;13.714;2023-07-31T12:26:03;2.47;;;1.60;;
77158;SDS011;66129;45.890;13.714;2023-07-31T12:28:37;3.50;;;1.60;;
77158;SDS011;66129;45.890;13.714;2023-07-31T12:31:06;2.35;;;1.60;;
77158;SDS011;66129;45.890;13.714;2023-07-31T12:33:34;2.22;;;1.40;;
77158;SDS011;66129;45.890;13.714;2023-07-31T12:36:02;2.90;;;1.83;;
77158;SDS011;66129;45.890;13.714;2023-07-31T12:38:29;2.50;;;1.58;;
77158;SDS011;66129;45.890;13.714;2023-07-31T12:40:55;5.05;;;1.45;;
77158;SDS011;66129;45.890;13.714;2023-07-31T12:43:20;7.38;;;1.75;;
77158;SDS011;66129;45.890;13.714;2023-07-31T12:45:46;1.95;;;1.55;;
77158;SDS011;66129;45.890;13.714;2023-07-31T12:48:12;2.45;;;1.42;;
77158;SDS011;66129;45.890;13.714;2023-07-31T12:50:38;2.33;;;1.60;;
77158;SDS011;66129;45.890;13.714;2023-07-31T12:53:04;2.25;;;1.60;;
77158;SDS011;66129;45.890;13.714;2023-07-31T12:55:29;2.42;;;1.35;;
77158;SDS011;66129;45.890;13.714;2023-07-31T12:57:55;2.85;;;1.80;;
77158;SDS011;66129;45.890;13.714;2023-07-31T13:00:21;2.25;;;1.60;;
77158;SDS011;66129;45.890;13.714;2023-07-31T13:02:47;3.58;;;1.80;;
77158;SDS011;66129;45.890;13.714;2023-07-31T13:05:12;2.58;;;1.70;;
77158;SDS011;66129;45.890;13.714;2023-07-31T13:07:38;3.20;;;2.00;;
77158;SDS011;66129;45.890;13.714;2023-07-31T13:10:05;3.25;;;1.75;;
77158;SDS011;66129;45.890;13.714;2023-07-31T13:12:31;2.95;;;1.92;;
77158;SDS011;66129;45.890;13.714;2023-07-31T13:14:57;2.60;;;1.80;;
77158;SDS011;66129;45.890;13.714;2023-07-31T13:17:22;3.00;;;1.45;;
77158;SDS011;66129;45.890;13.714;2023-07-31T13:19:48;3.63;;;1.63;;
77158;SDS011;66129;45.890;13.714;2023-07-31T13:22:13;2.40;;;1.63;;
77158;SDS011;66129;45.890;13.714;2023-07-31T13:24:38;3.25;;;1.58;;
77158;SDS011;66129;45.890;13.714;2023-07-31T13:27:04;3.28;;;1.73;;
77158;SDS011;66129;45.890;13.714;2023-07-31T13:29:29;2.22;;;1.50;;
77158;SDS011;66129;45.890;13.714;2023-07-31T13:31:55;3.72;;;1.70;;
77158;SDS011;66129;45.890;13.714;2023-07-31T13:34:21;2.55;;;1.80;;
77158;SDS011;66129;45.890;13.714;2023-07-31T13:36:46;1.90;;;1.35;;
77158;SDS011;66129;45.890;13.714;2023-07-31T13:39:12;2.00;;;1.38;;
77158;SDS011;66129;45.890;13.714;2023-07-31T13:41:37;2.25;;;1.70;;
77158;SDS011;66129;45.890;13.714;2023-07-31T13:44:03;2.70;;;1.70;;
77158;SDS011;66129;45.890;13.714;2023-07-31T13:46:28;2.45;;;1.85;;
77158;SDS011;66129;45.890;13.714;2023-07-31T13:48:54;3.40;;;1.70;;
77158;SDS011;66129;45.890;13.714;2023-07-31T13:51:21;6.50;;;2.47;;
77158;SDS011;66129;45.890;13.714;2023-07-31T13:53:46;3.38;;;1.98;;
77158;SDS011;66129;45.890;13.714;2023-07-31T13:56:12;2.47;;;1.50;;
77158;SDS011;66129;45.890;13.714;2023-07-31T13:58:38;3.88;;;1.75;;
77158;SDS011;66129;45.890;13.714;2023-07-31T14:01:03;2.45;;;1.60;;
77158;SDS011;66129;45.890;13.714;2023-07-31T14:03:29;2.50;;;1.60;;
77158;SDS011;66129;45.890;13.714;2023-07-31T14:05:55;2.20;;;1.60;;
77158;SDS011;66129;45.890;13.714;2023-07-31T14:08:21;2.70;;;1.70;;
77158;SDS011;66129;45.890;13.714;2023-07-31T14:10:47;2.85;;;1.65;;
77158;SDS011;66129;45.890;13.714;2023-07-31T14:13:12;2.75;;;1.63;;
77158;SDS011;66129;45.890;13.714;2023-07-31T14:15:38;2.35;;;1.50;;
77158;SDS011;66129;45.890;13.714;2023-07-31T14:18:04;2.03;;;1.50;;
77158;SDS011;66129;45.890;13.714;2023-07-31T14:20:29;3.45;;;2.15;;
77158;SDS011;66129;45.890;13.714;2023-07-31T14:22:55;3.70;;;1.90;;
77158;SDS011;66129;45.890;13.714;2023-07-31T14:25:21;2.97;;;1.70;;
77158;SDS011;66129;45.890;13.714;2023-07-31T14:27:46;2.63;;;1.70;;
77158;SDS011;66129;45.890;13.714;2023-07-31T14:30:12;2.70;;;1.95;;
77158;SDS011;66129;45.890;13.714;2023-07-31T14:32:37;3.47;;;1.80;;
77158;SDS011;66129;45.890;13.714;2023-07-31T14:35:03;5.18;;;2.03;;
77158;SDS011;66129;45.890;13.714;2023-07-31T14:37:36;2.63;;;1.75;;
77158;SDS011;66129;45.890;13.714;2023-07-31T14:40:04;2.80;;;1.90;;
77158;SDS011;66129;45.890;13.714;2023-07-31T14:42:30;3.13;;;1.70;;
77158;SDS011;66129;45.890;13.714;2023-07-31T14:44:56;3.08;;;2.00;;
77158;SDS011;66129;45.890;13.714;2023-07-31T14:47:21;3.03;;;1.80;;